createdAt,value
2018-06-24T00:01:48.761Z,94.77
2018-06-24T00:04:15.937Z,94.35
2018-06-24T00:06:43.034Z,94.23
2018-06-24T00:09:10.418Z,95.61
2018-06-24T00:11:37.451Z,94.81
2018-06-24T00:14:04.682Z,94.82
2018-06-24T00:16:31.813Z,94.87
2018-06-24T00:18:58.816Z,95.84
2018-06-24T00:21:26.682Z,96.59
2018-06-24T00:23:53.793Z,97.45
2018-06-24T00:26:20.878Z,98.22
2018-06-24T00:28:48.296Z,98.26
2018-06-24T00:31:15.316Z,98.77
2018-06-24T00:33:42.396Z,99.34
2018-06-24T00:36:09.455Z,99.57
2018-06-24T00:38:36.494Z,99.18
2018-06-24T00:41:03.613Z,98.85
2018-06-24T00:43:30.618Z,99.24
2018-06-24T00:45:57.649Z,99.31
2018-06-24T00:48:24.736Z,99.57
2018-06-24T00:50:51.725Z,98.96
2018-06-24T00:53:18.825Z,98.94
2018-06-24T00:55:45.850Z,99.12
2018-06-24T00:58:12.949Z,99.17
2018-06-24T01:00:39.961Z,99.64
2018-06-24T01:03:07.013Z,100.00
2018-06-24T01:05:34.093Z,100.00
2018-06-24T01:08:01.201Z,100.00
2018-06-24T01:10:28.521Z,100.00
2018-06-24T01:12:55.545Z,100.00
2018-06-24T01:15:22.584Z,100.00
2018-06-24T01:17:49.678Z,100.00
2018-06-24T01:20:16.731Z,100.00
2018-06-24T01:22:43.761Z,100.00
2018-06-24T01:25:10.797Z,100.00
2018-06-24T01:27:37.822Z,100.00
2018-06-24T01:30:04.828Z,100.00
2018-06-24T01:32:31.893Z,100.00
2018-06-24T01:34:58.902Z,100.00
2018-06-24T01:37:25.997Z,100.00
2018-06-24T01:39:53.293Z,100.00
2018-06-24T01:42:20.321Z,100.00
2018-06-24T01:44:47.333Z,100.00
2018-06-24T01:47:14.413Z,100.00
2018-06-24T01:49:41.410Z,100.00
2018-06-24T01:52:08.605Z,100.00
2018-06-24T01:54:35.618Z,100.00
2018-06-24T01:57:02.661Z,100.00
2018-06-24T01:59:29.671Z,100.00
2018-06-24T02:01:56.793Z,100.00
2018-06-24T02:04:23.803Z,100.00
2018-06-24T02:06:51.334Z,100.00
2018-06-24T02:09:18.485Z,100.00
2018-06-24T02:11:45.573Z,100.00
2018-06-24T02:14:12.602Z,100.00
2018-06-24T02:16:39.605Z,100.00
2018-06-24T02:19:07.893Z,100.00
2018-06-24T02:21:34.899Z,100.00
2018-06-24T02:24:01.954Z,100.00
2018-06-24T02:26:29.090Z,100.00
2018-06-24T02:28:56.153Z,100.00
2018-06-24T02:31:23.329Z,100.00
2018-06-24T02:33:50.449Z,100.00
2018-06-24T02:36:17.569Z,100.00
2018-06-24T02:38:44.862Z,100.00
2018-06-24T02:41:11.885Z,100.00
2018-06-24T02:43:38.952Z,100.00
2018-06-24T02:46:06.230Z,100.00
2018-06-24T02:48:33.277Z,100.00
2018-06-24T02:51:00.326Z,100.00
2018-06-24T02:53:27.334Z,100.00
2018-06-24T02:55:54.325Z,100.00
2018-06-24T02:58:21.453Z,100.00
2018-06-24T03:00:48.542Z,100.00
2018-06-24T03:03:15.535Z,100.00
2018-06-24T03:05:42.557Z,100.00
2018-06-24T03:08:09.645Z,100.00
2018-06-24T03:10:36.737Z,100.00
2018-06-24T03:13:03.818Z,100.00
2018-06-24T03:15:30.817Z,100.00
2018-06-24T03:17:57.897Z,100.00
2018-06-24T03:20:24.983Z,100.00
2018-06-24T03:22:53.640Z,100.00
2018-06-24T03:25:20.633Z,100.00
2018-06-24T03:27:47.643Z,100.00
2018-06-24T03:30:14.696Z,100.00
2018-06-24T03:32:41.774Z,100.00
2018-06-24T03:35:08.825Z,100.00
2018-06-24T03:37:35.826Z,100.00
2018-06-24T03:40:02.985Z,100.00
2018-06-24T03:42:30.074Z,100.00
2018-06-24T03:44:57.156Z,100.00
2018-06-24T03:47:24.158Z,100.00
2018-06-24T03:49:51.169Z,100.00
2018-06-24T03:52:18.182Z,100.00
2018-06-24T03:54:45.189Z,100.00
2018-06-24T03:57:12.205Z,100.00
2018-06-24T03:59:39.277Z,100.00
2018-06-24T04:02:06.405Z,100.00
2018-06-24T04:04:33.711Z,100.00
2018-06-24T04:07:00.835Z,100.00
2018-06-24T04:09:27.830Z,100.00
2018-06-24T04:11:54.977Z,100.00
2018-06-24T04:14:22.001Z,100.00
2018-06-24T04:16:49.093Z,100.00
2018-06-24T04:19:16.093Z,100.00
2018-06-24T04:21:43.186Z,100.00
2018-06-24T04:24:10.191Z,100.00
2018-06-24T04:26:37.225Z,100.00
2018-06-24T04:29:04.352Z,100.00
2018-06-24T04:31:31.374Z,100.00
2018-06-24T04:33:58.705Z,100.00
2018-06-24T04:36:25.773Z,100.00
2018-06-24T04:38:53.022Z,100.00
2018-06-24T04:41:20.084Z,100.00
2018-06-24T04:43:48.941Z,100.00
2018-06-24T04:46:16.013Z,100.00
2018-06-24T04:48:43.102Z,100.00
2018-06-24T04:51:10.192Z,100.00
2018-06-24T04:53:37.196Z,100.00
2018-06-24T04:56:04.328Z,100.00
2018-06-24T04:58:31.415Z,100.00
2018-06-24T05:00:58.492Z,100.00
2018-06-24T05:03:25.599Z,100.00
2018-06-24T05:05:52.593Z,100.00
2018-06-24T05:08:19.658Z,100.00
2018-06-24T05:10:46.714Z,100.00
2018-06-24T05:13:13.892Z,100.00
2018-06-24T05:15:41.114Z,100.00
2018-06-24T05:18:08.124Z,100.00
2018-06-24T05:20:35.609Z,100.00
2018-06-24T05:23:02.776Z,100.00
2018-06-24T05:25:29.897Z,100.00
2018-06-24T05:27:56.983Z,100.00
2018-06-24T05:30:24.086Z,100.00
2018-06-24T05:32:51.185Z,100.00
2018-06-24T05:35:18.211Z,100.00
2018-06-24T05:37:45.255Z,100.00
2018-06-24T05:40:12.308Z,100.00
2018-06-24T05:42:39.385Z,100.00
2018-06-24T05:45:06.414Z,100.00
2018-06-24T05:47:33.434Z,100.00
2018-06-24T05:50:00.513Z,100.00
2018-06-24T05:52:27.769Z,100.00
2018-06-24T05:54:54.961Z,100.00
2018-06-24T05:57:22.065Z,100.00
2018-06-24T05:59:49.281Z,100.00
2018-06-24T06:02:16.301Z,100.00
2018-06-24T06:04:43.439Z,100.00
2018-06-24T06:07:10.715Z,100.00
2018-06-24T06:09:37.802Z,100.00
2018-06-24T06:12:04.954Z,100.00
2018-06-24T06:14:32.042Z,100.00
2018-06-24T06:16:59.354Z,100.00
2018-06-24T06:19:26.356Z,100.00
2018-06-24T06:21:53.635Z,100.00
2018-06-24T06:24:20.726Z,99.80
2018-06-24T06:26:48.174Z,100.00
2018-06-24T06:29:15.258Z,100.00
2018-06-24T06:31:42.403Z,99.66
2018-06-24T06:34:09.492Z,98.30
2018-06-24T06:36:36.983Z,98.50
2018-06-24T06:39:06.731Z,97.21
2018-06-24T06:41:33.912Z,96.63
2018-06-24T06:44:01.056Z,96.71
2018-06-24T06:46:28.280Z,98.59
2018-06-24T06:48:55.385Z,97.87
2018-06-24T06:51:22.486Z,96.98
2018-06-24T06:53:49.513Z,97.44
2018-06-24T06:56:16.594Z,99.48
2018-06-24T06:58:43.662Z,98.81
2018-06-24T07:01:10.697Z,100.00
2018-06-24T07:03:37.727Z,100.00
2018-06-24T07:06:05.135Z,100.00
2018-06-24T07:08:32.244Z,100.00
2018-06-24T07:10:59.738Z,100.00
2018-06-24T07:13:26.873Z,100.00
2018-06-24T07:15:53.985Z,100.00
2018-06-24T07:18:21.042Z,100.00
2018-06-24T07:20:48.261Z,100.00
2018-06-24T07:23:15.497Z,100.00
2018-06-24T07:25:42.563Z,100.00
2018-06-24T07:28:09.965Z,100.00
2018-06-24T07:30:37.302Z,100.00
2018-06-24T07:33:04.639Z,100.00
2018-06-24T07:35:31.633Z,100.00
2018-06-24T07:37:58.806Z,100.00
2018-06-24T07:40:26.007Z,100.00
2018-06-24T07:42:53.127Z,100.00
2018-06-24T07:45:20.174Z,100.00
2018-06-24T07:47:47.368Z,98.50
2018-06-24T07:50:14.526Z,99.57
2018-06-24T07:52:41.745Z,100.00
2018-06-24T07:55:09.229Z,98.53
2018-06-24T07:57:36.587Z,98.99
2018-06-24T08:00:04.688Z,98.29
2018-06-24T08:02:31.821Z,98.37
2018-06-24T08:04:59.057Z,99.06
2018-06-24T08:07:26.189Z,98.57
2018-06-24T08:09:53.536Z,97.74
2018-06-24T08:12:20.601Z,96.66
2018-06-24T08:14:47.693Z,96.00
2018-06-24T08:17:15.041Z,95.25
2018-06-24T08:19:42.205Z,96.11
2018-06-24T08:22:09.591Z,98.31
2018-06-24T08:24:36.614Z,96.31
2018-06-24T08:27:04.191Z,93.12
2018-06-24T08:29:31.388Z,95.46
2018-06-24T08:31:58.533Z,95.46
2018-06-24T08:34:25.642Z,95.53
2018-06-24T08:36:52.704Z,92.20
2018-06-24T08:39:19.705Z,93.38
2018-06-24T08:41:46.819Z,94.08
2018-06-24T08:44:13.957Z,91.84
2018-06-24T08:46:40.969Z,92.39
2018-06-24T08:49:08.121Z,90.39
2018-06-24T08:51:35.434Z,92.24
2018-06-24T08:54:02.716Z,91.41
2018-06-24T08:56:29.865Z,91.47
2018-06-24T08:58:57.060Z,91.47
2018-06-24T09:01:24.194Z,92.44
2018-06-24T09:03:51.393Z,88.98
2018-06-24T09:06:18.445Z,88.51
2018-06-24T09:08:45.565Z,88.86
2018-06-24T09:11:12.729Z,88.00
2018-06-24T09:13:39.734Z,87.60
2018-06-24T09:16:06.859Z,87.05
2018-06-24T09:18:33.894Z,87.87
2018-06-24T09:21:00.915Z,86.76
2018-06-24T09:23:28.006Z,88.25
2018-06-24T09:25:55.120Z,86.83
2018-06-24T09:28:22.218Z,87.40
2018-06-24T09:30:49.277Z,86.75
2018-06-24T09:33:16.301Z,89.47
2018-06-24T09:35:43.413Z,88.47
2018-06-24T09:38:10.525Z,88.93
2018-06-24T09:40:37.585Z,90.36
2018-06-24T09:43:04.630Z,91.85
2018-06-24T09:45:31.689Z,91.97
2018-06-24T09:47:58.742Z,92.98
2018-06-24T09:50:25.796Z,90.74
2018-06-24T09:52:52.932Z,88.94
2018-06-24T09:55:20.028Z,87.69
2018-06-24T09:57:47.145Z,87.29
2018-06-24T10:00:19.785Z,86.42
2018-06-24T10:02:46.844Z,85.09
2018-06-24T10:05:13.963Z,85.30
2018-06-24T10:07:41.101Z,84.31
2018-06-24T10:10:08.168Z,84.49
2018-06-24T10:12:35.398Z,85.46
2018-06-24T10:15:02.453Z,85.44
2018-06-24T10:17:29.541Z,85.19
2018-06-24T10:19:56.563Z,83.88
2018-06-24T10:22:23.621Z,83.56
2018-06-24T10:24:50.677Z,83.21
2018-06-24T10:27:17.721Z,85.04
2018-06-24T10:29:44.801Z,84.63
2018-06-24T10:32:12.500Z,84.64
2018-06-24T10:34:39.562Z,84.25
2018-06-24T10:37:07.046Z,85.49
2018-06-24T10:39:34.258Z,87.93
2018-06-24T10:42:01.309Z,88.02
2018-06-24T10:44:28.454Z,87.24
2018-06-24T10:46:55.478Z,87.47
2018-06-24T10:49:22.506Z,84.50
2018-06-24T10:51:49.561Z,83.87
2018-06-24T10:54:16.663Z,79.76
2018-06-24T10:56:43.685Z,81.77
2018-06-24T10:59:10.712Z,82.33
2018-06-24T11:01:37.738Z,83.55
2018-06-24T11:04:04.885Z,83.90
2018-06-24T11:06:31.984Z,80.84
2018-06-24T11:08:59.092Z,82.62
2018-06-24T11:11:26.133Z,81.75
2018-06-24T11:13:53.277Z,83.30
2018-06-24T11:16:20.370Z,83.36
2018-06-24T11:18:47.418Z,85.24
2018-06-24T11:21:14.544Z,86.70
2018-06-24T11:23:41.597Z,87.88
2018-06-24T11:26:08.701Z,89.88
2018-06-24T11:28:35.857Z,90.27
2018-06-24T11:31:02.959Z,90.25
2018-06-24T11:33:30.012Z,91.27
2018-06-24T11:35:57.149Z,89.45
2018-06-24T11:38:24.302Z,88.79
2018-06-24T11:40:51.549Z,87.70
2018-06-24T11:43:18.662Z,86.71
2018-06-24T11:45:45.788Z,86.79
2018-06-24T11:48:13.218Z,84.96
2018-06-24T11:50:40.243Z,82.96
2018-06-24T11:53:07.433Z,84.11
2018-06-24T11:55:34.557Z,83.45
2018-06-24T11:58:02.008Z,85.26
2018-06-24T12:00:29.036Z,83.18
2018-06-24T12:02:56.223Z,83.54
2018-06-24T12:05:23.271Z,85.23
2018-06-24T12:07:50.462Z,86.39
2018-06-24T12:10:17.475Z,87.25
2018-06-24T12:12:44.670Z,87.59
2018-06-24T12:15:11.774Z,88.36
2018-06-24T12:17:38.956Z,90.22
2018-06-24T12:20:06.005Z,90.53
2018-06-24T12:22:33.117Z,91.38
2018-06-24T12:25:00.159Z,91.65
2018-06-24T12:27:27.308Z,92.63
2018-06-24T12:29:54.322Z,90.41
2018-06-24T12:32:21.439Z,91.63
2018-06-24T12:34:48.529Z,90.76
2018-06-24T12:37:15.650Z,90.34
2018-06-24T12:39:42.661Z,90.03
2018-06-24T12:42:09.786Z,91.81
2018-06-24T12:44:36.885Z,90.07
2018-06-24T12:47:04.006Z,90.32
2018-06-24T12:49:31.332Z,91.53
2018-06-24T12:51:58.354Z,90.80
2018-06-24T12:54:26.014Z,91.12
2018-06-24T12:56:53.038Z,89.72
2018-06-24T12:59:20.444Z,89.34
2018-06-24T13:01:47.290Z,87.08
2018-06-24T13:04:14.485Z,87.39
2018-06-24T13:06:41.530Z,86.69
2018-06-24T13:09:08.956Z,87.00
2018-06-24T13:11:35.967Z,88.31
2018-06-24T13:14:03.177Z,88.56
2018-06-24T13:16:30.310Z,89.93
2018-06-24T13:18:57.353Z,89.74
2018-06-24T13:21:24.417Z,89.87
2018-06-24T13:23:51.441Z,90.86
2018-06-24T13:26:18.569Z,89.29
2018-06-24T13:28:45.790Z,87.18
2018-06-24T13:31:12.898Z,87.64
2018-06-24T13:33:40.141Z,86.79
2018-06-24T13:36:07.201Z,85.35
2018-06-24T13:38:34.269Z,85.39
2018-06-24T13:41:01.340Z,84.85
2018-06-24T13:43:29.137Z,84.94
2018-06-24T13:45:56.196Z,87.59
2018-06-24T13:48:23.216Z,86.06
2018-06-24T13:50:50.401Z,86.20
2018-06-24T13:53:17.436Z,87.22
2018-06-24T13:55:44.583Z,88.24
2018-06-24T13:58:11.895Z,88.06
2018-06-24T14:00:38.967Z,89.42
2018-06-24T14:03:06.021Z,90.11
2018-06-24T14:05:33.169Z,90.56
2018-06-24T14:08:00.296Z,92.31
2018-06-24T14:10:27.560Z,91.91
2018-06-24T14:12:54.653Z,91.77
2018-06-24T14:15:21.682Z,89.29
2018-06-24T14:17:48.726Z,89.62
2018-06-24T14:20:15.798Z,87.47
2018-06-24T14:22:43.230Z,84.35
2018-06-24T14:25:10.285Z,83.89
2018-06-24T14:27:37.333Z,83.42
2018-06-24T14:30:04.513Z,85.88
2018-06-24T14:32:31.727Z,83.77
2018-06-24T14:34:58.824Z,81.62
2018-06-24T14:37:26.026Z,81.91
2018-06-24T14:39:53.175Z,83.18
2018-06-24T14:42:20.212Z,83.59
2018-06-24T14:44:47.373Z,82.41
2018-06-24T14:47:14.423Z,82.97
2018-06-24T14:49:41.532Z,82.91
2018-06-24T14:52:09.683Z,81.80
2018-06-24T14:54:36.734Z,83.94
2018-06-24T14:57:03.768Z,83.07
2018-06-24T14:59:30.881Z,82.29
2018-06-24T15:01:58.018Z,82.87
2018-06-24T15:04:25.129Z,84.31
2018-06-24T15:06:52.234Z,82.90
2018-06-24T15:09:19.365Z,83.41
2018-06-24T15:11:46.471Z,84.06
2018-06-24T15:14:13.509Z,84.95
2018-06-24T15:16:40.570Z,84.25
2018-06-24T15:19:07.713Z,85.80
2018-06-24T15:21:34.872Z,83.78
2018-06-24T15:24:02.265Z,85.98
2018-06-24T15:26:29.364Z,86.15
2018-06-24T15:28:56.406Z,84.92
2018-06-24T15:31:23.454Z,85.70
2018-06-24T15:33:50.502Z,84.70
2018-06-24T15:36:17.918Z,83.28
2018-06-24T15:38:44.977Z,84.13
2018-06-24T15:41:12.098Z,83.72
2018-06-24T15:43:39.420Z,83.61
2018-06-24T15:46:06.457Z,83.87
2018-06-24T15:48:33.635Z,83.99
2018-06-24T15:51:00.915Z,84.29
2018-06-24T15:53:28.762Z,84.42
2018-06-24T15:55:55.913Z,85.73
2018-06-24T15:58:22.998Z,84.31
2018-06-24T16:00:50.405Z,85.75
2018-06-24T16:03:17.634Z,85.96
2018-06-24T16:05:44.694Z,86.93
2018-06-24T16:08:11.918Z,85.92
2018-06-24T16:10:39.172Z,86.30
2018-06-24T16:13:06.470Z,87.91
2018-06-24T16:15:34.381Z,87.85
2018-06-24T16:18:02.521Z,88.09
2018-06-24T16:20:29.860Z,87.99
2018-06-24T16:22:57.267Z,88.24
2018-06-24T16:25:25.056Z,88.49
2018-06-24T16:27:52.527Z,88.18
2018-06-24T16:30:19.413Z,87.01
2018-06-24T16:32:46.805Z,86.47
2018-06-24T16:35:14.218Z,87.39
2018-06-24T16:37:41.682Z,86.92
2018-06-24T16:40:08.745Z,86.11
2018-06-24T16:42:35.919Z,86.67
2018-06-24T16:45:03.261Z,88.11
2018-06-24T16:47:30.766Z,87.11
2018-06-24T16:49:57.937Z,87.97
2018-06-24T16:52:25.268Z,87.45
2018-06-24T16:54:52.663Z,87.39
2018-06-24T16:57:19.839Z,87.18
2018-06-24T16:59:47.174Z,86.81
2018-06-24T17:02:14.297Z,86.76
2018-06-24T17:04:41.738Z,86.23
2018-06-24T17:07:08.831Z,85.97
2018-06-24T17:09:36.035Z,86.23
2018-06-24T17:12:03.093Z,84.89
2018-06-24T17:14:30.323Z,86.09
2018-06-24T17:16:57.622Z,85.32
2018-06-24T17:19:24.747Z,85.84
2018-06-24T17:21:51.796Z,85.85
2018-06-24T17:24:19.135Z,86.56
2018-06-24T17:26:46.382Z,85.75
2018-06-24T17:29:13.473Z,86.27
2018-06-24T17:31:40.673Z,86.22
2018-06-24T17:34:07.812Z,86.45
2018-06-24T17:36:34.921Z,86.22
2018-06-24T17:39:02.045Z,86.44
2018-06-24T17:41:29.141Z,86.36
2018-06-24T17:43:56.331Z,85.99
2018-06-24T17:46:23.366Z,85.16
2018-06-24T17:48:50.517Z,85.38
2018-06-24T17:51:17.596Z,85.35
2018-06-24T17:53:44.722Z,85.37
2018-06-24T17:56:11.910Z,83.94
2018-06-24T17:58:39.029Z,85.31
2018-06-24T18:01:06.675Z,84.50
2018-06-24T18:03:33.707Z,84.54
2018-06-24T18:06:00.869Z,85.35
2018-06-24T18:08:27.996Z,83.94
2018-06-24T18:10:55.167Z,83.90
2018-06-24T18:13:22.293Z,84.27
2018-06-24T18:15:49.326Z,83.87
2018-06-24T18:18:16.374Z,83.71
2018-06-24T18:20:43.540Z,84.66
2018-06-24T18:23:10.578Z,84.64
2018-06-24T18:25:37.831Z,85.58
2018-06-24T18:28:04.923Z,85.75
2018-06-24T18:30:32.021Z,84.15
2018-06-24T18:32:59.442Z,84.38
2018-06-24T18:35:26.528Z,85.57
2018-06-24T18:37:53.742Z,85.95
2018-06-24T18:40:20.785Z,86.17
2018-06-24T18:42:47.827Z,85.88
2018-06-24T18:45:14.986Z,86.04
2018-06-24T18:47:42.855Z,86.72
2018-06-24T18:50:09.967Z,86.11
2018-06-24T18:52:37.102Z,87.20
2018-06-24T18:55:05.122Z,87.07
2018-06-24T18:57:32.249Z,87.29
2018-06-24T18:59:59.367Z,87.25
2018-06-24T19:02:26.565Z,87.28
2018-06-24T19:04:53.746Z,87.68
2018-06-24T19:07:20.866Z,88.01
2018-06-24T19:09:47.987Z,88.79
2018-06-24T19:12:15.062Z,88.87
2018-06-24T19:14:42.123Z,88.42
2018-06-24T19:17:09.261Z,88.84
2018-06-24T19:19:36.643Z,88.19
2018-06-24T19:22:03.817Z,88.72
2018-06-24T19:24:30.937Z,88.56
2018-06-24T19:26:57.996Z,88.52
2018-06-24T19:29:25.182Z,90.16
2018-06-24T19:31:52.364Z,90.68
2018-06-24T19:34:19.545Z,90.88
2018-06-24T19:36:46.644Z,91.36
2018-06-24T19:39:14.026Z,91.74
2018-06-24T19:41:41.695Z,91.55
2018-06-24T19:44:08.840Z,91.51
2018-06-24T19:46:36.232Z,91.64
2018-06-24T19:49:03.401Z,91.18
2018-06-24T19:51:30.513Z,91.21
2018-06-24T19:53:57.577Z,91.49
2018-06-24T19:56:24.674Z,92.32
2018-06-24T19:58:52.028Z,91.69
2018-06-24T20:01:19.069Z,91.33
2018-06-24T20:03:46.509Z,91.78
2018-06-24T20:06:13.734Z,92.21
2018-06-24T20:08:40.857Z,91.90
2018-06-24T20:11:07.968Z,91.95
2018-06-24T20:13:35.288Z,93.25
2018-06-24T20:16:02.314Z,93.48
2018-06-24T20:18:29.597Z,92.72
2018-06-24T20:20:57.067Z,92.86
2018-06-24T20:23:24.304Z,93.76
2018-06-24T20:25:51.413Z,93.71
2018-06-24T20:28:18.670Z,93.73
2018-06-24T20:30:46.073Z,94.02
2018-06-24T20:33:13.490Z,94.34
2018-06-24T20:35:40.574Z,94.51
2018-06-24T20:38:07.783Z,94.26
2018-06-24T20:40:35.071Z,94.82
2018-06-24T20:43:02.310Z,95.21
2018-06-24T20:45:29.362Z,95.67
2018-06-24T20:47:56.687Z,95.52
2018-06-24T20:50:24.216Z,95.90
2018-06-24T20:52:51.620Z,95.99
2018-06-24T20:55:18.744Z,96.41
2018-06-24T20:57:45.847Z,96.15
2018-06-24T21:00:12.970Z,96.46
2018-06-24T21:02:40.086Z,96.87
2018-06-24T21:05:07.221Z,96.76
2018-06-24T21:07:34.536Z,97.35
2018-06-24T21:10:01.794Z,97.34
2018-06-24T21:12:29.138Z,97.27
2018-06-24T21:14:56.170Z,97.61
2018-06-24T21:17:23.321Z,98.71
2018-06-24T21:19:50.776Z,98.84
2018-06-24T21:22:17.884Z,99.25
2018-06-24T21:24:44.990Z,99.11
2018-06-24T21:27:12.365Z,99.64
2018-06-24T21:29:40.097Z,99.67
2018-06-24T21:32:07.513Z,99.62
2018-06-24T21:34:34.941Z,100.00
2018-06-24T21:37:02.086Z,99.37
2018-06-24T21:39:29.816Z,99.36
2018-06-24T21:41:56.901Z,100.00
2018-06-24T21:44:24.447Z,100.00
2018-06-24T21:46:51.669Z,100.00
2018-06-24T21:49:19.175Z,99.72
2018-06-24T21:51:46.530Z,100.00
2018-06-24T21:54:13.893Z,100.00
2018-06-24T21:56:40.973Z,100.00
2018-06-24T21:59:08.113Z,100.00
2018-06-24T22:01:35.161Z,100.00
2018-06-24T22:04:02.189Z,100.00
2018-06-24T22:06:29.210Z,100.00
2018-06-24T22:08:56.577Z,100.00
2018-06-24T22:11:23.707Z,100.00
2018-06-24T22:13:50.750Z,100.00
2018-06-24T22:16:17.799Z,100.00
2018-06-24T22:18:45.024Z,100.00
2018-06-24T22:21:12.049Z,100.00
2018-06-24T22:23:39.135Z,100.00
2018-06-24T22:26:06.803Z,100.00
2018-06-24T22:28:34.034Z,100.00
2018-06-24T22:31:01.085Z,100.00
2018-06-24T22:33:28.206Z,100.00
2018-06-24T22:35:55.221Z,100.00
2018-06-24T22:38:22.410Z,100.00
2018-06-24T22:40:49.468Z,100.00
2018-06-24T22:43:16.716Z,100.00
2018-06-24T22:45:44.005Z,100.00
2018-06-24T22:48:11.132Z,100.00
2018-06-24T22:50:38.257Z,100.00
2018-06-24T22:53:05.299Z,100.00
2018-06-24T22:55:32.347Z,100.00
2018-06-24T22:57:59.444Z,100.00
2018-06-24T23:00:26.570Z,100.00
2018-06-24T23:02:53.723Z,100.00
2018-06-24T23:05:21.300Z,100.00
2018-06-24T23:07:48.409Z,100.00
2018-06-24T23:10:15.574Z,100.00
2018-06-24T23:12:43.159Z,100.00
2018-06-24T23:15:10.834Z,100.00
2018-06-24T23:17:38.277Z,100.00
2018-06-24T23:20:06.053Z,100.00
2018-06-24T23:22:33.136Z,100.00
2018-06-24T23:25:00.166Z,100.00
2018-06-24T23:27:27.284Z,100.00
2018-06-24T23:29:54.390Z,100.00
2018-06-24T23:32:21.399Z,100.00
2018-06-24T23:34:48.451Z,100.00
2018-06-24T23:37:15.560Z,100.00
2018-06-24T23:39:42.738Z,100.00
2018-06-24T23:42:09.844Z,100.00
2018-06-24T23:44:36.882Z,100.00
2018-06-24T23:47:04.169Z,100.00
2018-06-24T23:49:31.722Z,100.00
2018-06-24T23:51:58.836Z,100.00
2018-06-24T23:54:25.960Z,100.00
2018-06-24T23:56:53.081Z,100.00
2018-06-24T23:59:20.128Z,100.00
